• Join FlightAware (Why Join?)
  • Login
  • US Flag 
07:17PM EDT


 

Airport Tracker/Info


-or-


 

Live Flight TrackerFlight Track Log ✈ ASQ3829 ✈ 18-Aug-2013 ✈ CYUL - KEWR

Flight Track Log - Related Links

Times and Time Zones

All times are in EDT time to prevent confusion due to time zone crossing. See the ASQ3829 flight status page for this flight to view local times or setup timezone preferences in your user account.

Time Position Orientation Groundspeed Altitude Reporting Facility
EDT Latitude Longitude Course Direction KTS MPH feet Rate Location/Type
06:37AM 45.4333 -73.7500 207° Southwest 160 184 1,400  Level Montreal Center
06:38AM 45.3833 -73.8000 215° Southwest 190 219 3,700 1,920 Climbing Montreal Center
06:39AM 45.3333 -73.8167 193° South 240 276 5,300 1,920 Climbing Montreal Center
06:40AM 45.1933 -73.9334 207° Southwest  Level FlightAware Approximate
06:40AM 45.2667 -73.8500 199° South 260 299 7,600  Level Montreal Center
06:41AM 45.1242 -73.9827 207° Southwest  Level FlightAware Approximate
06:41AM 45.2000 -73.9000 208° Southwest 260 299 9,900  Level Montreal Center
06:42AM 45.0552 -74.0320 207° Southwest  Level FlightAware Approximate
06:42AM 45.1167 -73.9333 196° South 300 345 11,200  Level Montreal Center
06:43AM 45.0167 -73.9500 187° South 340 391 12,200 960 Climbing Montreal Center
06:44AM 44.9333 -73.9333 172° South 360 414 13,200 960 Climbing Montreal Center
06:45AM 44.8167 -73.9333 180° South 370 426 14,200 900 Climbing Montreal Center
06:46AM 44.7933 -73.9406 192° South 374 430 14,600 900 Climbing Boston Center
06:47AM 44.6892 -73.9322 177° South 379 436 15,600 1,140 Climbing Boston Center
06:48AM 44.5831 -73.9264 178° South 384 442 16,900 1,260 Climbing Boston Center
06:49AM 44.4686 -73.9208 178° South 384 442 18,200 1,320 Climbing Boston Center
06:50AM 44.3644 -73.9122 177° South 384 442 19,600 1,320 Climbing Boston Center
06:51AM 44.2644 -73.9069 178° South 384 442 21,000 1,320 Climbing Boston Center
06:52AM 44.1625 -73.8986 177° South 373 429 22,300 1,320 Climbing Boston Center
06:53AM 44.0606 -73.8933 178° South 373 429 23,700 1,320 Climbing Boston Center
06:54AM 43.9583 -73.8850 177° South 368 423 25,000 1,080 Climbing Boston Center
06:55AM 43.8544 -73.8739 176° South 368 423 25,900 480 Climbing Boston Center
06:56AM 43.7461 -73.8683 178° South 373 429 26,000  Climbing Boston Center
06:57AM 43.6317 -73.8600 177° South 393 452 26,000 -180 Level Boston Center
06:58AM 43.5128 -73.8572 179° South 414 476 25,700 -660 Descending Boston Center
06:59AM 43.3881 -73.8458 176° South 438 504 24,700 -900 Descending Boston Center
07:00AM 43.2797 -73.8403 178° South 443 510 24,000 -960 Descending Boston Center
07:01AM 43.1567 -73.8319 177° South 443 510 22,900 -1,500 Descending Boston Center
07:02AM 43.0361 -73.8233 177° South 443 510 21,000 -2,100 Descending Boston Center
07:03AM 42.9153 -73.8150 177° South 416 479 18,700 -2,100 Descending Boston Center
07:04AM 42.8172 -73.8128 179° South 399 459 16,900 -1,380 Descending Boston Center
07:05AM 42.7089 -73.8244 185° South 399 459 16,000 -480 Descending Boston Center
07:06AM 42.6061 -73.8703 198° South 389 448 16,000  Level Boston Center
07:07AM 42.4908 -73.9183 197° South 401 461 16,000  Level Boston Center
07:08AM 42.3986 -73.9611 199° South 401 461 16,000  Level Boston Center
07:09AM 42.2833 -74.0117 198° South 401 461 16,000  Level Boston Center
07:10AM 42.1908 -74.0542 199° South 401 461 16,000  Level Boston Center
07:11AM 42.0861 -74.0989 198° South 401 461 16,000  Level Boston Center
07:12AM 41.9833 -74.1467 199° South 401 461 16,000 -180 Level Boston Center
07:13AM 41.8678 -74.1936 197° South 401 461 15,700 -1,320 Descending Boston Center
07:14AM 41.7756 -74.2356 199° South 395 455 13,500 -2,400 Descending Boston Center
07:15AM 41.6747 -74.2800 198° South 371 427 10,900 -1,680 Descending Boston Center
07:16AM 41.5992 -74.3111 197° South 332 382 10,200 -1,260 Descending Boston Center
07:17AM 41.5172 -74.3475 198° South 291 335 8,500 -1,020 Descending Boston Center
07:19AM 41.3500 -74.4167 197° South 272 313 7,000 -540 Descending New York TRACON
07:20AM 41.2833 -74.4167 180° South 274 315 7,000  Level New York TRACON
07:21AM 41.2167 -74.4333 191° South 275 316 7,000  Level New York TRACON
07:22AM 41.1333 -74.4500 189° South 278 320 7,000 -480 Level New York TRACON
07:23AM 41.0667 -74.4667 191° South 273 314 6,200 -600 Descending New York TRACON
07:23AM 41.0167 -74.4667 180° South 254 292 6,000 -120 Descending New York TRACON
07:24AM 40.9500 -74.4833 191° South 264 304 6,000  Level New York TRACON
07:25AM 40.8667 -74.5000 189° South 264 304 6,000  Level New York TRACON
07:26AM 40.8000 -74.5167 191° South 260 299 6,000 -60 Level New York TRACON
07:27AM 40.7333 -74.5167 180° South 263 303 5,900 -600 Descending New York TRACON
07:28AM 40.6833 -74.4500 135° Southeast 252 290 4,900 -1,020 Descending New York TRACON
07:29AM 40.6333 -74.3833 135° Southeast 253 291 3,900 -960 Descending New York TRACON
07:30AM 40.5667 -74.3500 159° South 255 293 3,000 -480 Descending New York TRACON
07:31AM 40.5167 -74.3167 153° Southeast 249 287 3,000 -60 Level New York TRACON
07:32AM 40.5500 -74.2500 57° Northeast 240 276 2,900 -600 Descending New York TRACON
07:33AM 40.6000 -74.2167 27° Northeast 206 237 1,800 -1,020 Descending New York TRACON
07:34AM 40.6500 -74.2000 14° North 141 162 900 -900 Descending New York TRACON
07:36AM 40.6833 -74.1667 24° Northeast  Level FlightAware Approximate
07:43AM 40.6925 -74.1687 24° Northeast  Level Estimated
07:44AM 40.6925 -74.1687 24° Northeast  Level Estimated